sensor_id;sensor_type;location;lat;lon;timestamp;P1;durP1;ratioP1;P2;durP2;ratioP2
16973;SDS011;8603;46.944;7.412;2022-10-31T00:23:21;10.27;;;6.20;;
16973;SDS011;8603;46.944;7.412;2022-10-31T00:26:27;8.03;;;6.30;;
16973;SDS011;8603;46.944;7.412;2022-10-31T00:29:11;10.47;;;6.33;;
16973;SDS011;8603;46.944;7.412;2022-10-31T00:31:42;13.93;;;6.53;;
16973;SDS011;8603;46.944;7.412;2022-10-31T00:34:08;10.20;;;6.63;;
16973;SDS011;8603;46.944;7.412;2022-10-31T00:37:03;16.47;;;7.43;;
16973;SDS011;8603;46.944;7.412;2022-10-31T00:39:37;12.70;;;7.17;;
16973;SDS011;8603;46.944;7.412;2022-10-31T00:42:06;13.63;;;7.00;;
16973;SDS011;8603;46.944;7.412;2022-10-31T00:44:39;14.73;;;6.60;;
16973;SDS011;8603;46.944;7.412;2022-10-31T00:47:07;11.47;;;6.43;;
16973;SDS011;8603;46.944;7.412;2022-10-31T00:49:38;10.13;;;6.07;;
16973;SDS011;8603;46.944;7.412;2022-10-31T00:52:06;13.10;;;5.97;;
16973;SDS011;8603;46.944;7.412;2022-10-31T00:54:35;11.87;;;6.47;;
16973;SDS011;8603;46.944;7.412;2022-10-31T00:57:13;13.67;;;6.87;;
16973;SDS011;8603;46.944;7.412;2022-10-31T00:59:38;10.37;;;6.47;;
16973;SDS011;8603;46.944;7.412;2022-10-31T01:02:09;9.23;;;6.10;;
16973;SDS011;8603;46.944;7.412;2022-10-31T01:04:37;10.47;;;6.00;;
16973;SDS011;8603;46.944;7.412;2022-10-31T01:07:21;8.97;;;5.53;;
16973;SDS011;8603;46.944;7.412;2022-10-31T01:09:49;12.03;;;5.67;;
16973;SDS011;8603;46.944;7.412;2022-10-31T01:12:15;9.17;;;5.70;;
16973;SDS011;8603;46.944;7.412;2022-10-31T01:14:44;8.57;;;5.73;;
16973;SDS011;8603;46.944;7.412;2022-10-31T01:17:11;7.83;;;5.57;;
16973;SDS011;8603;46.944;7.412;2022-10-31T01:19:37;10.20;;;5.20;;
16973;SDS011;8603;46.944;7.412;2022-10-31T01:22:03;7.80;;;5.27;;
16973;SDS011;8603;46.944;7.412;2022-10-31T01:24:32;9.90;;;5.33;;
16973;SDS011;8603;46.944;7.412;2022-10-31T01:26:58;8.10;;;5.93;;
16973;SDS011;8603;46.944;7.412;2022-10-31T01:29:26;11.43;;;5.87;;
16973;SDS011;8603;46.944;7.412;2022-10-31T01:31:54;8.57;;;5.80;;
16973;SDS011;8603;46.944;7.412;2022-10-31T01:34:23;9.83;;;5.73;;
16973;SDS011;8603;46.944;7.412;2022-10-31T01:36:49;12.43;;;5.90;;
16973;SDS011;8603;46.944;7.412;2022-10-31T01:39:43;9.80;;;6.50;;
16973;SDS011;8603;46.944;7.412;2022-10-31T01:48:34;11.20;;;6.87;;
16973;SDS011;8603;46.944;7.412;2022-10-31T01:51:36;12.20;;;6.63;;
16973;SDS011;8603;46.944;7.412;2022-10-31T01:54:42;8.87;;;5.33;;
16973;SDS011;8603;46.944;7.412;2022-10-31T01:57:23;9.53;;;5.33;;
16973;SDS011;8603;46.944;7.412;2022-10-31T02:00:03;7.57;;;5.20;;
16973;SDS011;8603;46.944;7.412;2022-10-31T02:02:48;11.50;;;6.13;;
16973;SDS011;8603;46.944;7.412;2022-10-31T02:05:33;9.80;;;5.77;;
16973;SDS011;8603;46.944;7.412;2022-10-31T02:08:26;9.93;;;5.70;;
16973;SDS011;8603;46.944;7.412;2022-10-31T02:11:13;7.80;;;5.27;;
16973;SDS011;8603;46.944;7.412;2022-10-31T02:14:02;9.07;;;4.97;;
16973;SDS011;8603;46.944;7.412;2022-10-31T02:17:02;7.57;;;5.37;;
16973;SDS011;8603;46.944;7.412;2022-10-31T02:19:41;7.00;;;5.40;;
16973;SDS011;8603;46.944;7.412;2022-10-31T02:31:40;11.60;;;5.20;;
16973;SDS011;8603;46.944;7.412;2022-10-31T02:34:24;7.33;;;4.97;;
16973;SDS011;8603;46.944;7.412;2022-10-31T02:37:27;7.53;;;4.63;;
16973;SDS011;8603;46.944;7.412;2022-10-31T02:46:59;8.67;;;4.80;;
16973;SDS011;8603;46.944;7.412;2022-10-31T02:52:43;11.33;;;5.90;;
16973;SDS011;8603;46.944;7.412;2022-10-31T03:15:49;9.23;;;4.60;;
16973;SDS011;8603;46.944;7.412;2022-10-31T03:21:30;6.80;;;4.83;;
16973;SDS011;8603;46.944;7.412;2022-10-31T03:24:31;7.67;;;4.67;;
16973;SDS011;8603;46.944;7.412;2022-10-31T03:27:17;9.43;;;4.70;;
16973;SDS011;8603;46.944;7.412;2022-10-31T03:30:16;10.47;;;5.40;;
16973;SDS011;8603;46.944;7.412;2022-10-31T03:33:24;10.47;;;4.87;;
16973;SDS011;8603;46.944;7.412;2022-10-31T03:36:17;13.07;;;5.40;;
16973;SDS011;8603;46.944;7.412;2022-10-31T03:45:39;10.53;;;5.23;;
16973;SDS011;8603;46.944;7.412;2022-10-31T03:48:25;8.57;;;4.83;;
16973;SDS011;8603;46.944;7.412;2022-10-31T03:54:13;11.97;;;4.80;;
16973;SDS011;8603;46.944;7.412;2022-10-31T03:57:24;7.77;;;4.80;;
16973;SDS011;8603;46.944;7.412;2022-10-31T04:00:06;8.80;;;5.20;;
16973;SDS011;8603;46.944;7.412;2022-10-31T04:02:51;7.93;;;5.07;;
16973;SDS011;8603;46.944;7.412;2022-10-31T04:05:46;13.00;;;5.20;;
16973;SDS011;8603;46.944;7.412;2022-10-31T04:08:27;8.23;;;5.33;;
16973;SDS011;8603;46.944;7.412;2022-10-31T04:11:21;7.50;;;4.90;;
16973;SDS011;8603;46.944;7.412;2022-10-31T04:14:02;11.47;;;5.17;;
16973;SDS011;8603;46.944;7.412;2022-10-31T04:17:03;8.27;;;5.53;;
16973;SDS011;8603;46.944;7.412;2022-10-31T04:20:07;12.53;;;5.83;;
16973;SDS011;8603;46.944;7.412;2022-10-31T04:23:32;10.07;;;5.30;;
16973;SDS011;8603;46.944;7.412;2022-10-31T04:26:13;7.17;;;4.97;;
16973;SDS011;8603;46.944;7.412;2022-10-31T04:28:43;8.30;;;4.47;;
16973;SDS011;8603;46.944;7.412;2022-10-31T04:31:16;9.37;;;5.00;;
16973;SDS011;8603;46.944;7.412;2022-10-31T04:33:45;9.37;;;5.53;;
16973;SDS011;8603;46.944;7.412;2022-10-31T04:36:30;6.83;;;4.53;;
16973;SDS011;8603;46.944;7.412;2022-10-31T04:39:10;12.47;;;5.00;;
16973;SDS011;8603;46.944;7.412;2022-10-31T04:42:15;8.47;;;5.17;;
16973;SDS011;8603;46.944;7.412;2022-10-31T04:44:41;6.87;;;4.77;;
16973;SDS011;8603;46.944;7.412;2022-10-31T04:47:09;8.87;;;5.20;;
16973;SDS011;8603;46.944;7.412;2022-10-31T04:49:38;8.00;;;5.20;;
16973;SDS011;8603;46.944;7.412;2022-10-31T04:52:12;8.07;;;5.30;;
16973;SDS011;8603;46.944;7.412;2022-10-31T04:54:39;8.68;;;5.25;;
16973;SDS011;8603;46.944;7.412;2022-10-31T04:57:07;10.90;;;5.00;;
16973;SDS011;8603;46.944;7.412;2022-10-31T04:59:37;7.03;;;4.80;;
16973;SDS011;8603;46.944;7.412;2022-10-31T05:06:11;6.67;;;4.73;;
16973;SDS011;8603;46.944;7.412;2022-10-31T05:12:00;8.13;;;4.83;;
16973;SDS011;8603;46.944;7.412;2022-10-31T05:14:26;9.27;;;4.77;;
16973;SDS011;8603;46.944;7.412;2022-10-31T05:16:55;10.37;;;4.90;;
16973;SDS011;8603;46.944;7.412;2022-10-31T05:26:26;12.20;;;4.73;;
16973;SDS011;8603;46.944;7.412;2022-10-31T05:29:44;8.57;;;5.10;;
16973;SDS011;8603;46.944;7.412;2022-10-31T05:32:22;10.00;;;5.27;;
16973;SDS011;8603;46.944;7.412;2022-10-31T05:34:49;11.30;;;5.20;;
16973;SDS011;8603;46.944;7.412;2022-10-31T05:37:14;10.40;;;4.67;;
16973;SDS011;8603;46.944;7.412;2022-10-31T05:39:40;9.17;;;5.00;;
16973;SDS011;8603;46.944;7.412;2022-10-31T05:42:05;10.37;;;5.10;;
16973;SDS011;8603;46.944;7.412;2022-10-31T05:44:31;8.77;;;5.20;;
16973;SDS011;8603;46.944;7.412;2022-10-31T05:46:56;10.70;;;5.38;;
16973;SDS011;8603;46.944;7.412;2022-10-31T05:49:34;6.73;;;5.00;;
16973;SDS011;8603;46.944;7.412;2022-10-31T05:55:02;9.03;;;4.83;;
16973;SDS011;8603;46.944;7.412;2022-10-31T05:58:31;8.30;;;4.60;;
16973;SDS011;8603;46.944;7.412;2022-10-31T06:01:59;7.80;;;5.00;;
16973;SDS011;8603;46.944;7.412;2022-10-31T06:04:25;8.67;;;4.50;;
16973;SDS011;8603;46.944;7.412;2022-10-31T06:06:51;8.00;;;4.60;;
16973;SDS011;8603;46.944;7.412;2022-10-31T06:09:20;5.43;;;4.87;;
16973;SDS011;8603;46.944;7.412;2022-10-31T06:15:13;9.83;;;5.47;;
16973;SDS011;8603;46.944;7.412;2022-10-31T06:21:25;12.77;;;5.60;;
16973;SDS011;8603;46.944;7.412;2022-10-31T06:24:06;9.40;;;5.67;;
16973;SDS011;8603;46.944;7.412;2022-10-31T06:30:20;7.13;;;4.57;;
16973;SDS011;8603;46.944;7.412;2022-10-31T06:32:53;10.43;;;5.60;;
16973;SDS011;8603;46.944;7.412;2022-10-31T06:45:40;10.40;;;6.63;;
16973;SDS011;8603;46.944;7.412;2022-10-31T06:48:07;9.80;;;5.73;;
16973;SDS011;8603;46.944;7.412;2022-10-31T06:50:33;11.53;;;6.20;;
16973;SDS011;8603;46.944;7.412;2022-10-31T06:52:59;10.57;;;6.10;;
16973;SDS011;8603;46.944;7.412;2022-10-31T06:55:25;8.33;;;5.60;;
16973;SDS011;8603;46.944;7.412;2022-10-31T06:57:52;8.67;;;5.50;;
16973;SDS011;8603;46.944;7.412;2022-10-31T07:00:19;9.10;;;5.53;;
16973;SDS011;8603;46.944;7.412;2022-10-31T07:05:24;13.00;;;5.77;;
16973;SDS011;8603;46.944;7.412;2022-10-31T07:07:52;8.97;;;5.60;;
16973;SDS011;8603;46.944;7.412;2022-10-31T07:10:18;8.97;;;5.97;;
16973;SDS011;8603;46.944;7.412;2022-10-31T07:12:44;10.47;;;5.77;;
16973;SDS011;8603;46.944;7.412;2022-10-31T07:15:10;7.13;;;5.57;;
16973;SDS011;8603;46.944;7.412;2022-10-31T07:17:35;12.73;;;7.27;;
16973;SDS011;8603;46.944;7.412;2022-10-31T07:20:04;9.77;;;6.27;;
16973;SDS011;8603;46.944;7.412;2022-10-31T07:22:36;11.13;;;5.87;;
16973;SDS011;8603;46.944;7.412;2022-10-31T07:25:02;8.97;;;6.17;;
16973;SDS011;8603;46.944;7.412;2022-10-31T07:27:28;9.20;;;6.70;;
16973;SDS011;8603;46.944;7.412;2022-10-31T07:29:53;10.30;;;5.90;;
16973;SDS011;8603;46.944;7.412;2022-10-31T07:32:19;11.20;;;6.13;;
16973;SDS011;8603;46.944;7.412;2022-10-31T07:34:45;8.97;;;5.70;;
16973;SDS011;8603;46.944;7.412;2022-10-31T07:37:10;7.50;;;5.33;;
16973;SDS011;8603;46.944;7.412;2022-10-31T07:39:36;12.20;;;5.67;;
16973;SDS011;8603;46.944;7.412;2022-10-31T07:42:01;11.43;;;5.50;;
16973;SDS011;8603;46.944;7.412;2022-10-31T07:44:27;10.13;;;5.17;;
16973;SDS011;8603;46.944;7.412;2022-10-31T07:46:52;14.17;;;5.80;;
16973;SDS011;8603;46.944;7.412;2022-10-31T07:49:18;15.37;;;5.07;;
16973;SDS011;8603;46.944;7.412;2022-10-31T07:51:43;9.57;;;5.40;;
16973;SDS011;8603;46.944;7.412;2022-10-31T07:54:09;11.03;;;5.67;;
16973;SDS011;8603;46.944;7.412;2022-10-31T07:56:34;10.53;;;5.80;;
16973;SDS011;8603;46.944;7.412;2022-10-31T07:59:00;11.30;;;5.97;;
16973;SDS011;8603;46.944;7.412;2022-10-31T08:01:25;8.60;;;5.97;;
16973;SDS011;8603;46.944;7.412;2022-10-31T08:03:51;12.87;;;6.33;;
16973;SDS011;8603;46.944;7.412;2022-10-31T08:06:16;14.40;;;6.90;;
16973;SDS011;8603;46.944;7.412;2022-10-31T08:08:42;13.47;;;5.80;;
16973;SDS011;8603;46.944;7.412;2022-10-31T08:11:08;10.97;;;6.07;;
16973;SDS011;8603;46.944;7.412;2022-10-31T08:13:33;11.03;;;5.97;;
16973;SDS011;8603;46.944;7.412;2022-10-31T08:15:59;11.13;;;5.87;;
16973;SDS011;8603;46.944;7.412;2022-10-31T08:18:29;11.27;;;5.00;;
16973;SDS011;8603;46.944;7.412;2022-10-31T08:20:55;9.77;;;5.40;;
16973;SDS011;8603;46.944;7.412;2022-10-31T08:23:20;10.03;;;5.63;;
16973;SDS011;8603;46.944;7.412;2022-10-31T08:25:46;9.57;;;5.13;;
16973;SDS011;8603;46.944;7.412;2022-10-31T08:28:12;7.17;;;4.40;;
16973;SDS011;8603;46.944;7.412;2022-10-31T08:30:39;10.90;;;4.37;;
16973;SDS011;8603;46.944;7.412;2022-10-31T08:33:09;8.43;;;4.00;;
16973;SDS011;8603;46.944;7.412;2022-10-31T08:35:39;8.57;;;4.30;;
16973;SDS011;8603;46.944;7.412;2022-10-31T08:38:05;8.80;;;3.80;;
16973;SDS011;8603;46.944;7.412;2022-10-31T08:40:33;11.43;;;3.53;;
16973;SDS011;8603;46.944;7.412;2022-10-31T08:45:28;9.02;;;3.58;;
16973;SDS011;8603;46.944;7.412;2022-10-31T08:48:03;5.28;;;3.05;;
16973;SDS011;8603;46.944;7.412;2022-10-31T08:50:31;9.00;;;3.10;;
16973;SDS011;8603;46.944;7.412;2022-10-31T08:53:05;8.47;;;3.50;;
16973;SDS011;8603;46.944;7.412;2022-10-31T08:55:36;8.23;;;3.05;;
16973;SDS011;8603;46.944;7.412;2022-10-31T08:58:03;5.57;;;3.10;;
16973;SDS011;8603;46.944;7.412;2022-10-31T09:00:31;8.60;;;3.27;;
16973;SDS011;8603;46.944;7.412;2022-10-31T09:03:08;7.67;;;3.10;;
16973;SDS011;8603;46.944;7.412;2022-10-31T09:05:36;6.20;;;3.00;;
16973;SDS011;8603;46.944;7.412;2022-10-31T09:08:02;7.33;;;3.37;;
16973;SDS011;8603;46.944;7.412;2022-10-31T09:10:29;6.63;;;2.97;;
16973;SDS011;8603;46.944;7.412;2022-10-31T09:12:56;12.33;;;3.27;;
16973;SDS011;8603;46.944;7.412;2022-10-31T09:15:22;8.97;;;3.07;;
16973;SDS011;8603;46.944;7.412;2022-10-31T09:17:48;9.20;;;3.37;;
16973;SDS011;8603;46.944;7.412;2022-10-31T09:20:14;9.87;;;3.50;;
16973;SDS011;8603;46.944;7.412;2022-10-31T09:22:40;4.90;;;2.83;;
16973;SDS011;8603;46.944;7.412;2022-10-31T09:25:06;6.90;;;3.20;;
16973;SDS011;8603;46.944;7.412;2022-10-31T09:27:31;7.67;;;3.47;;
16973;SDS011;8603;46.944;7.412;2022-10-31T09:29:57;5.03;;;3.03;;
16973;SDS011;8603;46.944;7.412;2022-10-31T09:32:22;5.87;;;3.23;;
16973;SDS011;8603;46.944;7.412;2022-10-31T09:34:48;10.90;;;4.03;;
16973;SDS011;8603;46.944;7.412;2022-10-31T09:37:14;8.43;;;3.47;;
16973;SDS011;8603;46.944;7.412;2022-10-31T09:39:39;10.20;;;4.90;;
16973;SDS011;8603;46.944;7.412;2022-10-31T09:44:49;15.37;;;4.80;;
16973;SDS011;8603;46.944;7.412;2022-10-31T09:50:22;8.57;;;3.10;;
16973;SDS011;8603;46.944;7.412;2022-10-31T09:52:54;4.53;;;2.90;;
16973;SDS011;8603;46.944;7.412;2022-10-31T09:55:40;7.78;;;3.13;;
16973;SDS011;8603;46.944;7.412;2022-10-31T09:58:16;5.35;;;3.15;;
16973;SDS011;8603;46.944;7.412;2022-10-31T10:00:46;5.67;;;3.30;;
16973;SDS011;8603;46.944;7.412;2022-10-31T10:08:30;7.37;;;3.30;;
16973;SDS011;8603;46.944;7.412;2022-10-31T10:16:47;6.63;;;3.13;;
16973;SDS011;8603;46.944;7.412;2022-10-31T10:24:57;8.15;;;3.30;;
16973;SDS011;8603;46.944;7.412;2022-10-31T10:30:13;5.30;;;3.13;;
16973;SDS011;8603;46.944;7.412;2022-10-31T10:32:49;7.07;;;3.42;;
16973;SDS011;8603;46.944;7.412;2022-10-31T10:35:31;7.90;;;2.90;;
16973;SDS011;8603;46.944;7.412;2022-10-31T10:38:08;9.25;;;3.45;;
16973;SDS011;8603;46.944;7.412;2022-10-31T10:41:02;12.55;;;3.85;;
16973;SDS011;8603;46.944;7.412;2022-10-31T10:43:39;6.50;;;3.30;;
16973;SDS011;8603;46.944;7.412;2022-10-31T10:49:29;9.10;;;3.40;;
16973;SDS011;8603;46.944;7.412;2022-10-31T10:52:04;7.30;;;2.70;;
16973;SDS011;8603;46.944;7.412;2022-10-31T11:00:13;8.57;;;2.92;;
16973;SDS011;8603;46.944;7.412;2022-10-31T11:02:45;7.82;;;3.22;;
16973;SDS011;8603;46.944;7.412;2022-10-31T11:07:50;5.35;;;2.90;;
16973;SDS011;8603;46.944;7.412;2022-10-31T11:10:16;6.80;;;2.67;;
16973;SDS011;8603;46.944;7.412;2022-10-31T11:12:58;12.75;;;3.53;;
16973;SDS011;8603;46.944;7.412;2022-10-31T11:15:28;6.47;;;3.05;;
16973;SDS011;8603;46.944;7.412;2022-10-31T11:17:56;6.85;;;3.22;;
16973;SDS011;8603;46.944;7.412;2022-10-31T11:20:27;8.35;;;3.38;;
16973;SDS011;8603;46.944;7.412;2022-10-31T11:23:30;10.25;;;3.53;;
16973;SDS011;8603;46.944;7.412;2022-10-31T11:25:50;10.70;;;3.05;;
16973;SDS011;8603;46.944;7.412;2022-10-31T11:28:21;6.95;;;3.65;;
16973;SDS011;8603;46.944;7.412;2022-10-31T11:33:34;6.60;;;3.65;;
16973;SDS011;8603;46.944;7.412;2022-10-31T11:36:03;8.15;;;4.03;;
16973;SDS011;8603;46.944;7.412;2022-10-31T11:39:01;10.85;;;4.10;;
16973;SDS011;8603;46.944;7.412;2022-10-31T11:41:30;6.32;;;3.33;;
16973;SDS011;8603;46.944;7.412;2022-10-31T11:43:59;8.38;;;3.28;;
16973;SDS011;8603;46.944;7.412;2022-10-31T11:46:36;7.25;;;2.70;;
16973;SDS011;8603;46.944;7.412;2022-10-31T11:49:05;8.48;;;3.00;;
16973;SDS011;8603;46.944;7.412;2022-10-31T11:51:40;4.35;;;2.67;;
16973;SDS011;8603;46.944;7.412;2022-10-31T11:54:05;7.75;;;2.75;;
16973;SDS011;8603;46.944;7.412;2022-10-31T11:56:41;8.27;;;2.70;;
16973;SDS011;8603;46.944;7.412;2022-10-31T12:02:14;11.75;;;2.97;;
16973;SDS011;8603;46.944;7.412;2022-10-31T12:04:44;6.38;;;2.30;;
16973;SDS011;8603;46.944;7.412;2022-10-31T12:07:14;5.78;;;2.50;;
16973;SDS011;8603;46.944;7.412;2022-10-31T12:09:39;6.65;;;2.60;;
16973;SDS011;8603;46.944;7.412;2022-10-31T12:17:19;7.80;;;2.92;;
16973;SDS011;8603;46.944;7.412;2022-10-31T12:36:05;8.45;;;2.78;;
16973;SDS011;8603;46.944;7.412;2022-10-31T12:39:02;8.85;;;3.22;;
16973;SDS011;8603;46.944;7.412;2022-10-31T12:42:15;8.93;;;2.80;;
16973;SDS011;8603;46.944;7.412;2022-10-31T12:44:57;9.55;;;3.38;;
16973;SDS011;8603;46.944;7.412;2022-10-31T12:55:38;6.38;;;3.03;;
16973;SDS011;8603;46.944;7.412;2022-10-31T12:58:14;7.57;;;3.05;;
16973;SDS011;8603;46.944;7.412;2022-10-31T13:01:06;9.13;;;3.20;;
16973;SDS011;8603;46.944;7.412;2022-10-31T13:06:44;6.65;;;3.10;;
16973;SDS011;8603;46.944;7.412;2022-10-31T13:09:18;8.05;;;2.72;;
16973;SDS011;8603;46.944;7.412;2022-10-31T13:11:49;7.32;;;2.78;;
16973;SDS011;8603;46.944;7.412;2022-10-31T13:14:31;9.32;;;3.03;;
16973;SDS011;8603;46.944;7.412;2022-10-31T13:17:03;9.00;;;2.67;;
16973;SDS011;8603;46.944;7.412;2022-10-31T13:19:31;11.07;;;2.67;;
16973;SDS011;8603;46.944;7.412;2022-10-31T13:22:04;7.18;;;2.85;;
16973;SDS011;8603;46.944;7.412;2022-10-31T13:27:22;10.05;;;3.42;;
16973;SDS011;8603;46.944;7.412;2022-10-31T13:32:23;7.95;;;2.90;;
16973;SDS011;8603;46.944;7.412;2022-10-31T13:34:54;6.45;;;3.10;;
16973;SDS011;8603;46.944;7.412;2022-10-31T13:37:36;5.72;;;2.72;;
16973;SDS011;8603;46.944;7.412;2022-10-31T13:45:22;5.72;;;2.97;;
16973;SDS011;8603;46.944;7.412;2022-10-31T13:47:56;5.82;;;2.53;;
16973;SDS011;8603;46.944;7.412;2022-10-31T13:50:41;6.35;;;3.28;;
16973;SDS011;8603;46.944;7.412;2022-10-31T13:53:19;6.35;;;2.90;;
16973;SDS011;8603;46.944;7.412;2022-10-31T13:55:47;7.07;;;2.72;;
16973;SDS011;8603;46.944;7.412;2022-10-31T13:58:40;4.53;;;2.42;;
16973;SDS011;8603;46.944;7.412;2022-10-31T14:01:21;7.68;;;3.00;;
16973;SDS011;8603;46.944;7.412;2022-10-31T14:03:55;7.75;;;2.90;;
16973;SDS011;8603;46.944;7.412;2022-10-31T14:09:27;6.75;;;2.95;;
16973;SDS011;8603;46.944;7.412;2022-10-31T14:11:53;5.13;;;2.53;;
16973;SDS011;8603;46.944;7.412;2022-10-31T14:14:21;7.18;;;2.90;;
16973;SDS011;8603;46.944;7.412;2022-10-31T14:16:54;6.38;;;2.83;;
16973;SDS011;8603;46.944;7.412;2022-10-31T14:19:22;4.38;;;2.38;;
16973;SDS011;8603;46.944;7.412;2022-10-31T14:21:48;6.00;;;2.42;;
16973;SDS011;8603;46.944;7.412;2022-10-31T14:24:15;7.88;;;3.10;;
16973;SDS011;8603;46.944;7.412;2022-10-31T14:27:01;5.32;;;2.35;;
16973;SDS011;8603;46.944;7.412;2022-10-31T14:29:46;9.68;;;3.15;;
16973;SDS011;8603;46.944;7.412;2022-10-31T14:34:42;6.40;;;2.97;;
16973;SDS011;8603;46.944;7.412;2022-10-31T14:37:18;4.80;;;2.75;;
16973;SDS011;8603;46.944;7.412;2022-10-31T14:42:52;8.35;;;3.53;;
16973;SDS011;8603;46.944;7.412;2022-10-31T14:48:21;5.60;;;3.03;;
16973;SDS011;8603;46.944;7.412;2022-10-31T14:51:02;10.02;;;2.72;;
16973;SDS011;8603;46.944;7.412;2022-10-31T14:53:46;7.20;;;3.45;;
16973;SDS011;8603;46.944;7.412;2022-10-31T14:56:19;9.30;;;3.72;;
16973;SDS011;8603;46.944;7.412;2022-10-31T14:59:08;7.45;;;4.18;;
16973;SDS011;8603;46.944;7.412;2022-10-31T15:01:38;8.48;;;3.55;;
16973;SDS011;8603;46.944;7.412;2022-10-31T15:04:07;8.18;;;4.10;;
16973;SDS011;8603;46.944;7.412;2022-10-31T15:06:46;10.27;;;4.30;;
16973;SDS011;8603;46.944;7.412;2022-10-31T15:09:29;11.73;;;5.15;;
16973;SDS011;8603;46.944;7.412;2022-10-31T15:14:47;10.93;;;6.93;;
16973;SDS011;8603;46.944;7.412;2022-10-31T15:17:15;11.10;;;7.18;;
16973;SDS011;8603;46.944;7.412;2022-10-31T15:19:41;15.13;;;8.15;;
16973;SDS011;8603;46.944;7.412;2022-10-31T15:22:09;13.45;;;7.88;;
16973;SDS011;8603;46.944;7.412;2022-10-31T15:24:45;14.45;;;7.93;;
16973;SDS011;8603;46.944;7.412;2022-10-31T15:27:15;16.60;;;8.60;;
16973;SDS011;8603;46.944;7.412;2022-10-31T15:32:49;17.50;;;7.72;;
16973;SDS011;8603;46.944;7.412;2022-10-31T15:37:51;13.95;;;7.93;;
16973;SDS011;8603;46.944;7.412;2022-10-31T15:40:18;19.50;;;8.60;;
16973;SDS011;8603;46.944;7.412;2022-10-31T15:42:49;21.63;;;8.57;;
16973;SDS011;8603;46.944;7.412;2022-10-31T15:45:28;17.90;;;9.05;;
16973;SDS011;8603;46.944;7.412;2022-10-31T16:16:26;18.00;;;11.30;;
16973;SDS011;8603;46.944;7.412;2022-10-31T16:19:03;17.47;;;11.90;;
16973;SDS011;8603;46.944;7.412;2022-10-31T16:22:11;19.13;;;11.07;;
16973;SDS011;8603;46.944;7.412;2022-10-31T16:24:59;15.82;;;11.30;;
16973;SDS011;8603;46.944;7.412;2022-10-31T16:27:27;16.90;;;11.55;;
16973;SDS011;8603;46.944;7.412;2022-10-31T16:29:55;16.40;;;12.07;;
16973;SDS011;8603;46.944;7.412;2022-10-31T16:32:35;19.27;;;12.30;;
16973;SDS011;8603;46.944;7.412;2022-10-31T16:35:18;16.45;;;10.68;;
16973;SDS011;8603;46.944;7.412;2022-10-31T16:37:57;19.97;;;12.50;;
16973;SDS011;8603;46.944;7.412;2022-10-31T16:40:23;21.57;;;12.07;;
16973;SDS011;8603;46.944;7.412;2022-10-31T16:42:49;21.83;;;13.13;;
16973;SDS011;8603;46.944;7.412;2022-10-31T16:45:19;22.07;;;13.20;;
16973;SDS011;8603;46.944;7.412;2022-10-31T16:47:50;18.67;;;11.67;;
16973;SDS011;8603;46.944;7.412;2022-10-31T16:50:23;20.53;;;12.00;;
16973;SDS011;8603;46.944;7.412;2022-10-31T16:52:52;19.97;;;12.53;;
16973;SDS011;8603;46.944;7.412;2022-10-31T16:55:18;19.40;;;12.83;;
16973;SDS011;8603;46.944;7.412;2022-10-31T16:57:48;20.97;;;13.87;;
16973;SDS011;8603;46.944;7.412;2022-10-31T17:00:17;20.57;;;13.87;;
16973;SDS011;8603;46.944;7.412;2022-10-31T17:02:45;18.97;;;13.97;;
16973;SDS011;8603;46.944;7.412;2022-10-31T17:05:14;19.73;;;13.13;;
16973;SDS011;8603;46.944;7.412;2022-10-31T17:07:56;18.33;;;12.50;;
16973;SDS011;8603;46.944;7.412;2022-10-31T17:10:45;18.50;;;13.43;;
16973;SDS011;8603;46.944;7.412;2022-10-31T17:13:17;21.50;;;14.33;;
16973;SDS011;8603;46.944;7.412;2022-10-31T17:16:04;27.20;;;14.63;;
16973;SDS011;8603;46.944;7.412;2022-10-31T17:18:30;24.17;;;14.20;;
16973;SDS011;8603;46.944;7.412;2022-10-31T17:20:59;19.10;;;13.57;;
16973;SDS011;8603;46.944;7.412;2022-10-31T17:23:27;17.67;;;13.17;;
16973;SDS011;8603;46.944;7.412;2022-10-31T17:25:54;21.93;;;14.07;;
16973;SDS011;8603;46.944;7.412;2022-10-31T17:28:20;26.00;;;15.67;;
16973;SDS011;8603;46.944;7.412;2022-10-31T17:30:53;24.40;;;14.83;;
16973;SDS011;8603;46.944;7.412;2022-10-31T17:33:22;19.80;;;13.40;;
16973;SDS011;8603;46.944;7.412;2022-10-31T17:35:47;24.90;;;15.47;;
16973;SDS011;8603;46.944;7.412;2022-10-31T17:38:13;18.60;;;13.90;;
16973;SDS011;8603;46.944;7.412;2022-10-31T17:40:39;23.57;;;14.97;;
16973;SDS011;8603;46.944;7.412;2022-10-31T17:43:09;23.43;;;14.80;;
16973;SDS011;8603;46.944;7.412;2022-10-31T17:45:37;24.57;;;15.30;;
16973;SDS011;8603;46.944;7.412;2022-10-31T17:48:04;21.20;;;14.13;;
16973;SDS011;8603;46.944;7.412;2022-10-31T17:50:30;28.70;;;19.67;;
16973;SDS011;8603;46.944;7.412;2022-10-31T17:52:56;24.90;;;16.57;;
16973;SDS011;8603;46.944;7.412;2022-10-31T17:55:23;23.80;;;17.30;;
16973;SDS011;8603;46.944;7.412;2022-10-31T17:57:48;29.00;;;19.97;;
16973;SDS011;8603;46.944;7.412;2022-10-31T18:00:15;26.67;;;17.53;;
16973;SDS011;8603;46.944;7.412;2022-10-31T18:02:43;24.03;;;18.00;;
16973;SDS011;8603;46.944;7.412;2022-10-31T18:05:09;21.60;;;16.67;;
16973;SDS011;8603;46.944;7.412;2022-10-31T18:07:35;19.43;;;14.47;;
16973;SDS011;8603;46.944;7.412;2022-10-31T18:10:00;21.30;;;14.63;;
16973;SDS011;8603;46.944;7.412;2022-10-31T18:12:26;16.13;;;12.80;;
16973;SDS011;8603;46.944;7.412;2022-10-31T18:14:52;16.70;;;12.93;;
16973;SDS011;8603;46.944;7.412;2022-10-31T18:17:19;30.77;;;21.63;;
16973;SDS011;8603;46.944;7.412;2022-10-31T18:19:45;27.37;;;16.97;;
16973;SDS011;8603;46.944;7.412;2022-10-31T18:22:11;23.60;;;15.27;;
16973;SDS011;8603;46.944;7.412;2022-10-31T18:24:37;21.80;;;15.10;;
16973;SDS011;8603;46.944;7.412;2022-10-31T18:27:03;19.87;;;13.43;;
16973;SDS011;8603;46.944;7.412;2022-10-31T18:29:32;27.07;;;15.77;;
16973;SDS011;8603;46.944;7.412;2022-10-31T18:31:58;24.27;;;15.73;;
16973;SDS011;8603;46.944;7.412;2022-10-31T18:34:23;21.50;;;15.07;;
16973;SDS011;8603;46.944;7.412;2022-10-31T18:36:49;26.53;;;17.30;;
16973;SDS011;8603;46.944;7.412;2022-10-31T18:39:15;23.77;;;14.90;;
16973;SDS011;8603;46.944;7.412;2022-10-31T18:41:41;19.50;;;14.40;;
16973;SDS011;8603;46.944;7.412;2022-10-31T18:44:06;20.20;;;14.37;;
16973;SDS011;8603;46.944;7.412;2022-10-31T18:46:33;24.27;;;15.03;;
16973;SDS011;8603;46.944;7.412;2022-10-31T18:48:59;24.23;;;16.53;;
16973;SDS011;8603;46.944;7.412;2022-10-31T18:51:25;23.73;;;16.57;;
16973;SDS011;8603;46.944;7.412;2022-10-31T18:53:52;31.53;;;21.53;;
16973;SDS011;8603;46.944;7.412;2022-10-31T18:56:20;31.10;;;20.90;;
16973;SDS011;8603;46.944;7.412;2022-10-31T18:58:46;27.57;;;18.90;;
16973;SDS011;8603;46.944;7.412;2022-10-31T19:01:12;34.40;;;20.63;;
16973;SDS011;8603;46.944;7.412;2022-10-31T19:03:39;34.23;;;21.53;;
16973;SDS011;8603;46.944;7.412;2022-10-31T19:06:05;31.20;;;19.67;;
16973;SDS011;8603;46.944;7.412;2022-10-31T19:08:33;29.57;;;18.87;;
16973;SDS011;8603;46.944;7.412;2022-10-31T19:11:11;29.63;;;18.53;;
16973;SDS011;8603;46.944;7.412;2022-10-31T19:13:38;25.30;;;18.60;;
16973;SDS011;8603;46.944;7.412;2022-10-31T19:16:11;31.17;;;19.80;;
16973;SDS011;8603;46.944;7.412;2022-10-31T19:18:39;34.40;;;21.63;;
16973;SDS011;8603;46.944;7.412;2022-10-31T19:21:06;30.93;;;20.07;;
16973;SDS011;8603;46.944;7.412;2022-10-31T19:23:32;34.60;;;21.20;;
16973;SDS011;8603;46.944;7.412;2022-10-31T19:25:58;29.27;;;19.83;;
16973;SDS011;8603;46.944;7.412;2022-10-31T19:28:26;35.60;;;21.40;;
16973;SDS011;8603;46.944;7.412;2022-10-31T19:30:57;32.13;;;19.93;;
16973;SDS011;8603;46.944;7.412;2022-10-31T19:33:22;32.30;;;20.53;;
16973;SDS011;8603;46.944;7.412;2022-10-31T19:36:11;30.87;;;19.70;;
16973;SDS011;8603;46.944;7.412;2022-10-31T19:38:39;30.80;;;19.33;;
16973;SDS011;8603;46.944;7.412;2022-10-31T19:41:08;35.80;;;20.67;;
16973;SDS011;8603;46.944;7.412;2022-10-31T19:43:36;29.40;;;18.53;;
16973;SDS011;8603;46.944;7.412;2022-10-31T19:46:02;29.70;;;19.30;;